Time;durP1;ratioP1;P1;durP2;ratioP2;P2;SDS_P1;SDS_P2;PMS_P1;PMS_P2;Temp;Humidity;BMP_temperature;BMP_pressure;BME280_temperature;BME280_humidity;BME280_pressure;Samples;Min_cycle;Max_cycle;Signal;HPM_P1;HPM_P2
2022/06/13 00:00:26;;;;;;;7.50;1.88;;;;;;;;;;4963228;28;20054;-76
2022/06/13 00:03:03;;;;;;;5.55;1.80;;;;;;;;;;4964664;28;20137;-77
2022/06/13 00:05:28;;;;;;;5.05;2.03;;;;;;;;;;4964351;28;20600;-74
2022/06/13 00:07:54;;;;;;;7.32;1.80;;;;;;;;;;4964062;28;20050;-75
2022/06/13 00:10:20;;;;;;;5.55;1.80;;;;;;;;;;4962941;28;20043;-73
2022/06/13 00:12:46;;;;;;;6.45;1.90;;;;;;;;;;4961268;28;20051;-75
2022/06/13 00:15:14;;;;;;;6.90;1.75;;;;;;;;;;4960351;28;20118;-73
2022/06/13 00:17:40;;;;;;;4.47;1.52;;;;;;;;;;4962878;28;20046;-76
2022/06/13 00:20:07;;;;;;;7.88;1.70;;;;;;;;;;4962546;28;20051;-76
2022/06/13 00:22:33;;;;;;;6.80;1.75;;;;;;;;;;4962869;28;20508;-76
2022/06/13 00:24:59;;;;;;;6.88;1.75;;;;;;;;;;4960290;28;20062;-75
2022/06/13 00:27:26;;;;;;;3.67;1.60;;;;;;;;;;4961518;28;20053;-73
2022/06/13 00:29:52;;;;;;;5.07;1.63;;;;;;;;;;4962774;28;20049;-75
2022/06/13 00:32:18;;;;;;;6.93;1.58;;;;;;;;;;4961615;28;20424;-75
2022/06/13 00:34:44;;;;;;;5.20;1.80;;;;;;;;;;4961225;28;20340;-74
2022/06/13 00:37:10;;;;;;;4.32;1.45;;;;;;;;;;4963537;28;20042;-74
2022/06/13 00:39:36;;;;;;;5.05;1.77;;;;;;;;;;4964286;28;20894;-74
2022/06/13 00:42:02;;;;;;;7.30;1.70;;;;;;;;;;4960612;28;20468;-77
2022/06/13 00:44:38;;;;;;;3.85;1.70;;;;;;;;;;4960520;28;20059;-74
2022/06/13 00:47:04;;;;;;;5.43;1.83;;;;;;;;;;4961096;28;20058;-76
2022/06/13 00:49:32;;;;;;;5.90;1.77;;;;;;;;;;4963517;28;20047;-75
2022/06/13 00:52:17;;;;;;;6.90;1.77;;;;;;;;;;4960504;28;20527;-73
2022/06/13 00:54:46;;;;;;;7.60;1.70;;;;;;;;;;4958385;28;20051;-74
2022/06/13 00:57:25;;;;;;;5.00;1.52;;;;;;;;;;4962950;28;20073;-74
2022/06/13 00:59:54;;;;;;;4.90;1.67;;;;;;;;;;4962730;28;20134;-74
2022/06/13 01:02:21;;;;;;;8.50;1.60;;;;;;;;;;4962538;28;20326;-73
2022/06/13 01:04:50;;;;;;;6.45;1.73;;;;;;;;;;4964616;28;20619;-76
2022/06/13 01:07:16;;;;;;;4.85;1.42;;;;;;;;;;4966383;28;20043;-76
2022/06/13 01:12:29;;;;;;;3.75;1.50;;;;;;;;;;4964326;28;20532;-76
2022/06/13 01:15:05;;;;;;;4.93;1.80;;;;;;;;;;4963232;28;20066;-74
2022/06/13 01:17:37;;;;;;;3.70;1.38;;;;;;;;;;4964401;28;20297;-72
2022/06/13 01:20:17;;;;;;;9.68;1.60;;;;;;;;;;4966454;28;20554;-77
2022/06/13 01:23:01;;;;;;;5.70;1.50;;;;;;;;;;4965498;28;20387;-75
2022/06/13 01:26:05;;;;;;;2.75;1.65;;;;;;;;;;4962460;28;20054;-73
2022/06/13 01:28:46;;;;;;;10.02;1.83;;;;;;;;;;4922834;29;20235;-73
2022/06/13 01:31:17;;;;;;;5.15;1.52;;;;;;;;;;4922944;29;20058;-75
2022/06/13 01:33:58;;;;;;;3.00;1.45;;;;;;;;;;4924183;29;20048;-75
2022/06/13 01:36:41;;;;;;;2.35;1.27;;;;;;;;;;4923196;29;20486;-73
2022/06/13 01:39:37;;;;;;;3.83;1.42;;;;;;;;;;4925844;29;20897;-75
2022/06/13 01:42:17;;;;;;;5.68;1.40;;;;;;;;;;4924132;29;20059;-75
2022/06/13 01:45:19;;;;;;;4.95;1.23;;;;;;;;;;4920546;29;20051;-76
2022/06/13 01:47:53;;;;;;;5.78;1.48;;;;;;;;;;4922143;29;20059;-76
2022/06/13 01:50:31;;;;;;;5.60;1.40;;;;;;;;;;4925619;29;20047;-73
2022/06/13 01:53:17;;;;;;;3.85;1.20;;;;;;;;;;4909279;29;20103;-72
2022/06/13 01:55:47;;;;;;;4.75;1.25;;;;;;;;;;4922325;29;20917;-76
2022/06/13 01:58:35;;;;;;;3.65;1.17;;;;;;;;;;4924371;28;20131;-72
2022/06/13 02:01:34;;;;;;;4.40;1.58;;;;;;;;;;4963393;28;20133;-73
2022/06/13 02:04:36;;;;;;;4.90;1.23;;;;;;;;;;4961738;28;20057;-75
2022/06/13 02:07:12;;;;;;;4.90;1.20;;;;;;;;;;4962813;28;20757;-75
2022/06/13 02:10:00;;;;;;;3.20;1.42;;;;;;;;;;4965776;28;20061;-73
2022/06/13 02:12:32;;;;;;;5.30;1.55;;;;;;;;;;4964256;28;20058;-72
2022/06/13 02:15:05;;;;;;;3.72;1.60;;;;;;;;;;4960253;28;20117;-75
2022/06/13 02:17:36;;;;;;;6.68;1.50;;;;;;;;;;4966405;28;20062;-77
2022/06/13 02:20:16;;;;;;;2.72;1.50;;;;;;;;;;4965852;28;20055;-76
2022/06/13 02:22:44;;;;;;;7.47;1.90;;;;;;;;;;4965043;28;20377;-73
2022/06/13 02:25:12;;;;;;;4.57;1.50;;;;;;;;;;4960044;28;20146;-74
2022/06/13 02:27:40;;;;;;;6.93;1.85;;;;;;;;;;4964147;28;20186;-77
2022/06/13 02:30:11;;;;;;;5.53;1.65;;;;;;;;;;4962311;28;20043;-77
2022/06/13 02:33:04;;;;;;;7.40;1.73;;;;;;;;;;4965727;28;20110;-73
2022/06/13 02:35:48;;;;;;;9.25;1.90;;;;;;;;;;4962639;28;20062;-77
2022/06/13 02:38:43;;;;;;;5.13;1.63;;;;;;;;;;4964198;28;20587;-73
2022/06/13 02:41:15;;;;;;;7.25;1.50;;;;;;;;;;4960297;28;20055;-74
2022/06/13 02:43:52;;;;;;;2.67;1.50;;;;;;;;;;4966442;28;20150;-76
2022/06/13 02:46:25;;;;;;;9.57;2.30;;;;;;;;;;4963087;28;20050;-76
2022/06/13 02:48:57;;;;;;;10.57;2.00;;;;;;;;;;4963793;28;20055;-71
2022/06/13 02:51:57;;;;;;;4.45;1.75;;;;;;;;;;4962782;28;20038;-74
2022/06/13 02:54:45;;;;;;;8.20;2.00;;;;;;;;;;4952692;28;20109;-75
2022/06/13 02:57:23;;;;;;;7.57;2.10;;;;;;;;;;4963557;28;20055;-73
2022/06/13 03:00:10;;;;;;;9.70;2.00;;;;;;;;;;4961976;28;20051;-76
2022/06/13 03:02:44;;;;;;;8.27;1.80;;;;;;;;;;4962737;28;20548;-74
2022/06/13 03:05:29;;;;;;;7.82;2.20;;;;;;;;;;4960336;28;20083;-74
2022/06/13 03:08:08;;;;;;;6.78;1.90;;;;;;;;;;4964529;28;20039;-72
2022/06/13 03:10:42;;;;;;;6.68;2.13;;;;;;;;;;4961667;28;20480;-79
2022/06/13 03:13:23;;;;;;;5.15;1.80;;;;;;;;;;4964730;28;20050;-74
2022/06/13 03:16:02;;;;;;;7.03;2.03;;;;;;;;;;4954082;28;20062;-72
2022/06/13 03:18:34;;;;;;;9.70;1.98;;;;;;;;;;4963816;28;20129;-75
2022/06/13 03:21:14;;;;;;;5.10;2.00;;;;;;;;;;4962679;28;20063;-72
2022/06/13 03:23:59;;;;;;;5.63;1.65;;;;;;;;;;4964370;28;20047;-76
2022/06/13 03:26:31;;;;;;;6.55;1.95;;;;;;;;;;4959162;28;20185;-74
2022/06/13 03:29:16;;;;;;;6.95;2.40;;;;;;;;;;4964480;28;20066;-72
2022/06/13 03:31:47;;;;;;;;;;;;;;;;;;4964614;28;20051;-74
2022/06/13 03:34:20;;;;;;;7.25;1.83;;;;;;;;;;4959537;28;19929;-75
2022/06/13 03:36:52;;;;;;;6.77;1.97;;;;;;;;;;4964366;28;20047;-74
2022/06/13 03:39:20;;;;;;;9.82;2.20;;;;;;;;;;4962737;28;20568;-73
2022/06/13 03:42:07;;;;;;;9.77;2.35;;;;;;;;;;4960716;28;20051;-75
2022/06/13 03:44:53;;;;;;;7.85;2.20;;;;;;;;;;4959985;28;20066;-71
2022/06/13 03:47:29;;;;;;;8.38;2.10;;;;;;;;;;4963101;28;20068;-75
2022/06/13 03:50:18;;;;;;;10.48;2.10;;;;;;;;;;4962994;28;20086;-77
2022/06/13 03:52:48;;;;;;;8.80;1.92;;;;;;;;;;4958219;28;20093;-74
2022/06/13 03:55:22;;;;;;;6.03;1.75;;;;;;;;;;4959795;28;20134;-77
2022/06/13 03:57:55;;;;;;;9.02;2.10;;;;;;;;;;4961242;28;20437;-72
2022/06/13 04:00:33;;;;;;;6.30;1.70;;;;;;;;;;4961105;28;20110;-75
2022/06/13 04:03:00;;;;;;;6.20;2.05;;;;;;;;;;4961328;28;20079;-72
2022/06/13 04:05:52;;;;;;;5.28;1.65;;;;;;;;;;4956780;28;20054;-74
2022/06/13 04:08:18;;;;;;;6.72;1.95;;;;;;;;;;4964595;28;20059;-75
2022/06/13 04:11:16;;;;;;;6.40;2.22;;;;;;;;;;4961885;28;20467;-74
2022/06/13 04:14:00;;;;;;;6.40;2.13;;;;;;;;;;4965874;28;20081;-73
2022/06/13 04:16:40;;;;;;;6.75;2.00;;;;;;;;;;4959751;28;20134;-75
2022/06/13 04:19:17;;;;;;;8.70;2.10;;;;;;;;;;4962071;28;20070;-75
2022/06/13 04:22:01;;;;;;;4.85;1.90;;;;;;;;;;4963864;28;20058;-74
2022/06/13 04:24:52;;;;;;;8.57;2.47;;;;;;;;;;4959904;28;20129;-74
2022/06/13 04:27:23;;;;;;;11.95;2.25;;;;;;;;;;4961991;28;20054;-74
2022/06/13 04:30:10;;;;;;;9.20;2.00;;;;;;;;;;4962338;28;20166;-72
2022/06/13 04:32:43;;;;;;;7.22;2.10;;;;;;;;;;4965351;28;20057;-72
2022/06/13 04:35:09;;;;;;;5.72;1.77;;;;;;;;;;4956495;28;20582;-74
2022/06/13 04:37:37;;;;;;;4.55;1.85;;;;;;;;;;4965053;28;20666;-72
2022/06/13 04:40:08;;;;;;;5.38;1.77;;;;;;;;;;4965179;28;20059;-72
2022/06/13 04:42:37;;;;;;;5.43;1.90;;;;;;;;;;4967410;28;20055;-74
2022/06/13 04:45:18;;;;;;;8.23;1.98;;;;;;;;;;4959037;28;20049;-73
2022/06/13 04:47:46;;;;;;;6.47;1.83;;;;;;;;;;4969021;28;20058;-74
2022/06/13 04:50:17;;;;;;;6.80;1.95;;;;;;;;;;4961581;28;20057;-73
2022/06/13 04:52:45;;;;;;;8.02;1.98;;;;;;;;;;4963131;28;20412;-72
2022/06/13 04:55:26;;;;;;;9.55;2.10;;;;;;;;;;4961016;28;20381;-70
2022/06/13 04:57:52;;;;;;;7.93;2.15;;;;;;;;;;4962484;28;20051;-70
2022/06/13 05:00:18;;;;;;;4.75;1.80;;;;;;;;;;4963344;28;20500;-71
2022/06/13 05:02:50;;;;;;;3.97;1.92;;;;;;;;;;4963850;28;20046;-71
2022/06/13 05:05:54;;;;;;;7.88;2.10;;;;;;;;;;4960853;28;20098;-71
2022/06/13 05:08:28;;;;;;;10.27;2.07;;;;;;;;;;4949194;28;20054;-73
2022/06/13 05:11:00;;;;;;;6.70;1.98;;;;;;;;;;4958648;28;20324;-70
2022/06/13 05:13:27;;;;;;;7.38;2.00;;;;;;;;;;4962357;28;20051;-72
2022/06/13 05:16:18;;;;;;;10.48;2.10;;;;;;;;;;4955107;28;20070;-70
2022/06/13 05:19:09;;;;;;;5.85;2.08;;;;;;;;;;4956207;28;20431;-72
2022/06/13 05:21:46;;;;;;;5.80;1.92;;;;;;;;;;4961538;28;20055;-69
2022/06/13 05:24:31;;;;;;;6.85;2.20;;;;;;;;;;4961541;28;20043;-70
2022/06/13 05:26:56;;;;;;;;;;;;;;;;;;4963502;28;20137;-71
2022/06/13 05:29:25;;;;;;;11.02;2.13;;;;;;;;;;4964309;28;19933;-69
2022/06/13 05:31:52;;;;;;;3.78;1.75;;;;;;;;;;4963663;28;20046;-71
2022/06/13 05:34:26;;;;;;;8.05;1.98;;;;;;;;;;4959103;28;20483;-75
2022/06/13 05:36:52;;;;;;;8.30;1.92;;;;;;;;;;4958271;28;20382;-72
2022/06/13 05:39:18;;;;;;;12.02;2.40;;;;;;;;;;4964365;28;20057;-72
2022/06/13 05:41:44;;;;;;;5.88;2.17;;;;;;;;;;4961851;28;20047;-71
2022/06/13 05:44:10;;;;;;;4.85;2.20;;;;;;;;;;4960316;28;21099;-70
2022/06/13 05:46:37;;;;;;;6.88;1.80;;;;;;;;;;4961791;28;20055;-69
2022/06/13 05:49:05;;;;;;;9.15;2.30;;;;;;;;;;4961187;28;20191;-70
2022/06/13 05:51:31;;;;;;;8.70;2.30;;;;;;;;;;4961802;28;20046;-69
2022/06/13 05:53:57;;;;;;;7.03;3.35;;;;;;;;;;4963661;28;20404;-71
2022/06/13 05:56:25;;;;;;;13.10;5.03;;;;;;;;;;4956222;28;20062;-71
2022/06/13 05:58:52;;;;;;;20.52;7.53;;;;;;;;;;4961625;28;20127;-71
2022/06/13 06:01:18;;;;;;;17.05;6.32;;;;;;;;;;4960761;28;20043;-73
2022/06/13 06:03:47;;;;;;;12.85;3.40;;;;;;;;;;4961606;28;20051;-68
2022/06/13 06:06:22;;;;;;;11.68;2.67;;;;;;;;;;4955772;28;20575;-72
2022/06/13 06:08:49;;;;;;;8.10;2.35;;;;;;;;;;4960871;28;20125;-71
2022/06/13 06:11:15;;;;;;;13.82;2.40;;;;;;;;;;4959040;28;20043;-67
2022/06/13 06:13:41;;;;;;;11.73;2.60;;;;;;;;;;4962595;28;20109;-69
2022/06/13 06:16:06;;;;;;;12.35;2.70;;;;;;;;;;4957868;28;20398;-69
2022/06/13 06:18:33;;;;;;;13.30;2.83;;;;;;;;;;4963001;28;20058;-69
2022/06/13 06:20:59;;;;;;;11.95;2.72;;;;;;;;;;4963737;28;20505;-71
2022/06/13 06:23:26;;;;;;;21.90;3.50;;;;;;;;;;4963240;28;20050;-70
2022/06/13 06:25:52;;;;;;;15.90;2.58;;;;;;;;;;4957011;28;20062;-72
2022/06/13 06:28:21;;;;;;;13.05;2.75;;;;;;;;;;4962204;28;20419;-71
2022/06/13 06:30:47;;;;;;;11.65;3.00;;;;;;;;;;4964077;28;20401;-70
2022/06/13 06:33:13;;;;;;;13.23;3.20;;;;;;;;;;4960068;28;20108;-72
2022/06/13 06:35:40;;;;;;;15.25;4.10;;;;;;;;;;4958893;28;20600;-74
2022/06/13 06:38:06;;;;;;;15.32;3.75;;;;;;;;;;4964217;28;20058;-73
2022/06/13 06:40:33;;;;;;;19.65;3.53;;;;;;;;;;4961453;28;20556;-75
2022/06/13 06:42:59;;;;;;;12.95;3.38;;;;;;;;;;4963243;28;20046;-73
2022/06/13 06:45:26;;;;;;;12.50;3.25;;;;;;;;;;4956239;28;20070;-74
2022/06/13 06:47:54;;;;;;;15.32;3.08;;;;;;;;;;4966069;28;20069;-71
2022/06/13 06:50:26;;;;;;;19.48;3.80;;;;;;;;;;4963033;28;20077;-73
2022/06/13 06:52:52;;;;;;;13.55;3.88;;;;;;;;;;4964454;28;20050;-76
2022/06/13 07:00:50;;;;;;;;;;;;;;;;;;4963082;28;20066;-75
2022/06/13 07:03:17;;;;;;;21.02;3.95;;;;;;;;;;4953348;28;20253;-78
2022/06/13 07:05:45;;;;;;;19.52;4.03;;;;;;;;;;4950529;28;20508;-74
2022/06/13 07:08:11;;;;;;;14.18;4.18;;;;;;;;;;4956738;28;20066;-74
2022/06/13 07:10:37;;;;;;;15.77;5.10;;;;;;;;;;4956680;28;20105;-74
2022/06/13 07:13:03;;;;;;;19.33;4.72;;;;;;;;;;4965740;28;20110;-75
2022/06/13 07:15:29;;;;;;;18.30;5.22;;;;;;;;;;4958570;28;20419;-73
2022/06/13 07:17:55;;;;;;;18.73;4.97;;;;;;;;;;4967603;28;20540;-72
2022/06/13 07:20:21;;;;;;;26.27;5.65;;;;;;;;;;4961980;28;20064;-73
2022/06/13 07:22:50;;;;;;;20.17;5.63;;;;;;;;;;4967689;28;20141;-74
2022/06/13 07:25:19;;;;;;;28.88;5.72;;;;;;;;;;4965778;28;20066;-76
2022/06/13 07:27:45;;;;;;;21.67;6.28;;;;;;;;;;4964073;28;20469;-72
2022/06/13 07:30:12;;;;;;;26.20;6.90;;;;;;;;;;4962640;28;20058;-71
2022/06/13 07:32:39;;;;;;;33.28;6.90;;;;;;;;;;4967640;28;20528;-74
2022/06/13 07:35:07;;;;;;;24.00;6.05;;;;;;;;;;4956431;28;20408;-71
2022/06/13 07:40:17;;;;;;;27.25;6.75;;;;;;;;;;4963668;28;20058;-73
2022/06/13 07:42:52;;;;;;;21.63;6.07;;;;;;;;;;4963609;28;20047;-74
2022/06/13 07:45:22;;;;;;;27.13;5.45;;;;;;;;;;4969184;28;20485;-72
2022/06/13 07:47:51;;;;;;;24.17;6.03;;;;;;;;;;4962923;28;20053;-73
2022/06/13 07:50:20;;;;;;;24.85;5.57;;;;;;;;;;4961798;28;20570;-72
2022/06/13 07:52:47;;;;;;;22.08;5.43;;;;;;;;;;4969317;28;20051;-76
2022/06/13 07:55:13;;;;;;;11.25;2.72;;;;;;;;;;4967905;28;20047;-75
2022/06/13 07:57:39;;;;;;;12.27;2.60;;;;;;;;;;4967121;28;20443;-72
2022/06/13 08:00:07;;;;;;;16.20;2.70;;;;;;;;;;4966325;28;20065;-72
2022/06/13 08:02:34;;;;;;;14.52;3.22;;;;;;;;;;4968276;28;20047;-73
2022/06/13 08:05:01;;;;;;;18.65;3.38;;;;;;;;;;4967678;28;20051;-78
2022/06/13 08:07:27;;;;;;;17.60;3.80;;;;;;;;;;4966064;28;20353;-74
2022/06/13 08:09:52;;;;;;;12.38;3.28;;;;;;;;;;4966641;28;20053;-71
2022/06/13 08:12:20;;;;;;;13.63;2.88;;;;;;;;;;4965737;28;20113;-76
2022/06/13 08:14:47;;;;;;;7.90;2.30;;;;;;;;;;4963423;28;20038;-74
2022/06/13 08:17:20;;;;;;;11.88;2.50;;;;;;;;;;4953669;28;20046;-73
2022/06/13 08:19:47;;;;;;;9.23;2.75;;;;;;;;;;4963166;28;20051;-73
2022/06/13 08:22:14;;;;;;;21.48;2.90;;;;;;;;;;4966422;28;20049;-73
2022/06/13 08:24:41;;;;;;;12.18;2.47;;;;;;;;;;4963185;28;20070;-75
2022/06/13 08:27:07;;;;;;;14.20;2.30;;;;;;;;;;4958318;28;20457;-75
2022/06/13 08:29:33;;;;;;;13.07;2.63;;;;;;;;;;4963178;28;20371;-73
2022/06/13 08:32:00;;;;;;;9.40;2.38;;;;;;;;;;4963407;28;20423;-75
2022/06/13 08:34:26;;;;;;;14.05;3.33;;;;;;;;;;4963286;28;20042;-73
2022/06/13 08:36:53;;;;;;;9.73;2.28;;;;;;;;;;4964071;28;20054;-75
2022/06/13 08:39:19;;;;;;;10.43;2.33;;;;;;;;;;4966717;28;20050;-73
2022/06/13 08:41:58;;;;;;;7.38;2.30;;;;;;;;;;4965490;28;20353;-75
2022/06/13 08:44:36;;;;;;;9.15;2.00;;;;;;;;;;4958460;28;21200;-72
2022/06/13 08:47:15;;;;;;;6.28;2.05;;;;;;;;;;4961696;28;20058;-73
2022/06/13 08:49:47;;;;;;;14.77;2.22;;;;;;;;;;4960727;28;20409;-73
2022/06/13 08:52:26;;;;;;;6.05;1.95;;;;;;;;;;4957164;28;20346;-74
2022/06/13 08:55:06;;;;;;;11.23;2.20;;;;;;;;;;4965201;28;20425;-74
2022/06/13 08:57:34;;;;;;;9.80;2.40;;;;;;;;;;4963372;28;20149;-72
2022/06/13 09:00:08;;;;;;;11.18;2.50;;;;;;;;;;4961485;28;20185;-71
2022/06/13 09:02:40;;;;;;;;;;;;;;;;;;4962898;28;20051;-69
2022/06/13 09:05:27;;;;;;;14.27;2.38;;;;;;;;;;4965307;28;19941;-74
2022/06/13 09:08:18;;;;;;;12.85;3.03;;;;;;;;;;4957893;28;20047;-72
2022/06/13 09:11:13;;;;;;;13.77;3.05;;;;;;;;;;4963174;28;20130;-73
2022/06/13 09:13:43;;;;;;;17.80;3.17;;;;;;;;;;4903581;29;20127;-77
2022/06/13 09:16:17;;;;;;;14.85;3.20;;;;;;;;;;4904738;29;20097;-72
2022/06/13 09:18:45;;;;;;;;;;;;;;;;;;4902258;29;20180;-74
2022/06/13 09:21:34;;;;;;;14.18;3.50;;;;;;;;;;4904700;29;19927;-74
2022/06/13 09:24:23;;;;;;;11.98;3.40;;;;;;;;;;4904949;29;20079;-73
2022/06/13 09:26:51;;;;;;;10.98;3.00;;;;;;;;;;4909398;29;20048;-72
2022/06/13 09:29:20;;;;;;;16.23;3.50;;;;;;;;;;4907484;29;20470;-74
2022/06/13 09:32:09;;;;;;;11.30;2.95;;;;;;;;;;4910430;29;20111;-73
2022/06/13 09:34:51;;;;;;;13.45;2.92;;;;;;;;;;4900117;29;20070;-75
2022/06/13 09:37:23;;;;;;;14.43;3.10;;;;;;;;;;4902148;29;20095;-72
2022/06/13 09:39:50;;;;;;;14.57;2.90;;;;;;;;;;4909190;29;20051;-73
2022/06/13 09:42:48;;;;;;;12.32;3.13;;;;;;;;;;4896483;29;20559;-73
2022/06/13 09:45:25;;;;;;;8.80;2.63;;;;;;;;;;4909457;29;20218;-73
2022/06/13 09:47:54;;;;;;;15.38;3.03;;;;;;;;;;4900414;29;20146;-72
2022/06/13 09:50:33;;;;;;;9.38;2.75;;;;;;;;;;4942092;28;20073;-75
2022/06/13 09:53:17;;;;;;;8.90;2.70;;;;;;;;;;4970827;28;20413;-71
2022/06/13 09:55:57;;;;;;;7.35;2.30;;;;;;;;;;4955500;28;20057;-73
2022/06/13 09:58:35;;;;;;;4.68;2.00;;;;;;;;;;4962338;28;20110;-74
2022/06/13 10:01:08;;;;;;;8.95;2.15;;;;;;;;;;4960454;28;20050;-77
2022/06/13 10:04:04;;;;;;;9.02;2.00;;;;;;;;;;4969429;28;20047;-74
2022/06/13 10:06:40;;;;;;;4.10;2.28;;;;;;;;;;4968739;28;20085;-75
2022/06/13 10:09:42;;;;;;;5.40;2.17;;;;;;;;;;4966601;28;20416;-76
2022/06/13 10:12:35;;;;;;;5.40;1.80;;;;;;;;;;4965191;28;20035;-74
2022/06/13 10:15:12;;;;;;;4.20;1.98;;;;;;;;;;4965179;28;20500;-74
2022/06/13 10:17:59;;;;;;;3.63;1.58;;;;;;;;;;4964256;28;20423;-72
2022/06/13 10:20:38;;;;;;;3.95;1.98;;;;;;;;;;4969331;28;20420;-73
2022/06/13 10:23:11;;;;;;;8.38;1.85;;;;;;;;;;4961861;28;20053;-76
2022/06/13 10:26:08;;;;;;;7.35;2.10;;;;;;;;;;4966466;28;20768;-76
2022/06/13 10:28:50;;;;;;;5.65;1.67;;;;;;;;;;4966445;28;20046;-74
2022/06/13 10:31:22;;;;;;;6.75;2.15;;;;;;;;;;4964393;28;20039;-75
2022/06/13 10:34:18;;;;;;;6.43;2.20;;;;;;;;;;4970069;28;20053;-75
2022/06/13 10:37:05;;;;;;;9.85;2.33;;;;;;;;;;4963131;28;20070;-72
2022/06/13 10:39:32;;;;;;;4.88;2.03;;;;;;;;;;4967594;28;20051;-74
2022/06/13 10:42:05;;;;;;;6.35;2.72;;;;;;;;;;4968412;28;20085;-77
2022/06/13 10:44:32;;;;;;;10.68;2.03;;;;;;;;;;4969009;28;20043;-83
2022/06/13 10:47:07;;;;;;;8.38;2.20;;;;;;;;;;4972729;28;20147;-75
2022/06/13 10:49:39;;;;;;;10.68;2.00;;;;;;;;;;4968556;28;20102;-74
2022/06/13 10:52:14;;;;;;;5.28;1.88;;;;;;;;;;4972430;28;20053;-72
2022/06/13 10:54:45;;;;;;;7.03;1.80;;;;;;;;;;4972048;28;20046;-75
2022/06/13 10:57:20;;;;;;;6.00;1.75;;;;;;;;;;4967846;28;20050;-73
2022/06/13 11:00:12;;;;;;;5.63;1.92;;;;;;;;;;4963958;28;20202;-77
2022/06/13 11:02:38;;;;;;;6.85;1.90;;;;;;;;;;4965613;28;20816;-74
2022/06/13 11:05:09;;;;;;;6.50;2.08;;;;;;;;;;4962461;28;20066;-74
2022/06/13 11:07:44;;;;;;;12.10;2.28;;;;;;;;;;4957927;28;20284;-77
2022/06/13 11:10:31;;;;;;;7.10;2.38;;;;;;;;;;4969455;28;20045;-75
2022/06/13 11:12:58;;;;;;;8.73;2.38;;;;;;;;;;4966522;28;20051;-72
2022/06/13 11:24:20;;;;;;;9.52;1.90;;;;;;;;;;4976854;28;20050;-80
2022/06/13 11:29:35;;;;;;;4.95;1.65;;;;;;;;;;4968504;28;20071;-75
2022/06/13 11:32:05;;;;;;;6.00;1.70;;;;;;;;;;4966812;28;20042;-73
2022/06/13 11:34:38;;;;;;;3.97;1.52;;;;;;;;;;4964157;28;20142;-74
2022/06/13 11:37:13;;;;;;;4.97;1.80;;;;;;;;;;4963475;28;20120;-76
2022/06/13 11:39:48;;;;;;;6.40;1.75;;;;;;;;;;4958979;28;20059;-76
2022/06/13 11:42:26;;;;;;;6.65;1.70;;;;;;;;;;4966984;28;20042;-72
2022/06/13 11:44:59;;;;;;;3.92;1.60;;;;;;;;;;4965417;28;20519;-75
2022/06/13 11:47:37;;;;;;;4.45;2.00;;;;;;;;;;4961754;28;20105;-74
2022/06/13 11:50:15;;;;;;;7.32;1.77;;;;;;;;;;4966955;28;20047;-76
2022/06/13 11:55:29;;;;;;;7.65;1.55;;;;;;;;;;4962928;28;20409;-72
2022/06/13 11:58:00;;;;;;;7.15;1.40;;;;;;;;;;4962895;28;20146;-77
2022/06/13 12:00:38;;;;;;;3.38;1.40;;;;;;;;;;4965544;28;20042;-75
2022/06/13 12:03:05;;;;;;;7.18;1.85;;;;;;;;;;4956763;28;20054;-76
2022/06/13 12:05:35;;;;;;;7.13;1.92;;;;;;;;;;4962325;28;20508;-73
2022/06/13 12:08:07;;;;;;;7.15;1.92;;;;;;;;;;4960509;28;20042;-73
2022/06/13 12:10:41;;;;;;;4.07;1.67;;;;;;;;;;4962296;28;20047;-79
2022/06/13 12:13:15;;;;;;;4.07;1.58;;;;;;;;;;4962747;28;20063;-75
2022/06/13 12:16:11;;;;;;;8.60;1.98;;;;;;;;;;4960611;28;20130;-76
2022/06/13 12:18:46;;;;;;;3.80;1.70;;;;;;;;;;4962203;28;20377;-74
2022/06/13 12:21:18;;;;;;;5.45;1.60;;;;;;;;;;4956587;28;20062;-75
2022/06/13 12:24:07;;;;;;;4.65;1.63;;;;;;;;;;4957001;28;20059;-75
2022/06/13 12:26:36;;;;;;;4.38;1.35;;;;;;;;;;4960667;28;20054;-75
2022/06/13 12:29:36;;;;;;;4.00;1.88;;;;;;;;;;4961608;28;20046;-75
2022/06/13 12:32:22;;;;;;;6.18;1.83;;;;;;;;;;4959430;28;20358;-74
2022/06/13 12:35:25;;;;;;;6.72;1.70;;;;;;;;;;4963533;28;20571;-73
2022/06/13 12:38:09;;;;;;;6.15;1.70;;;;;;;;;;4963368;28;20145;-76
2022/06/13 12:40:53;;;;;;;;;;;;;;;;;;4957276;28;20405;-75
2022/06/13 12:43:26;;;;;;;;;;;;;;;;;;4963674;28;20443;-73
2022/06/13 12:46:34;;;;;;;6.75;1.85;;;;;;;;;;4958061;28;19977;-80
2022/06/13 12:49:12;;;;;;;2.85;1.17;;;;;;;;;;4957683;28;20077;-75
2022/06/13 12:51:50;;;;;;;4.20;1.38;;;;;;;;;;4964550;28;20054;-73
2022/06/13 12:54:44;;;;;;;6.18;1.30;;;;;;;;;;4966175;28;20059;-74
2022/06/13 12:57:28;;;;;;;3.50;1.27;;;;;;;;;;4960826;28;20043;-77
2022/06/13 13:00:03;;;;;;;5.32;1.50;;;;;;;;;;4963566;28;20054;-73
2022/06/13 13:02:46;;;;;;;4.28;1.20;;;;;;;;;;4967806;28;20511;-77
2022/06/13 13:05:26;;;;;;;4.55;1.20;;;;;;;;;;4969089;28;20089;-73
2022/06/13 13:08:10;;;;;;;5.32;1.40;;;;;;;;;;4966854;28;20120;-77
2022/06/13 13:11:09;;;;;;;3.90;1.23;;;;;;;;;;4962676;28;20062;-73
2022/06/13 13:13:54;;;;;;;6.10;1.52;;;;;;;;;;4962894;28;20046;-72
2022/06/13 13:16:26;;;;;;;5.32;1.40;;;;;;;;;;4948393;28;20104;-74
2022/06/13 13:19:03;;;;;;;4.78;1.38;;;;;;;;;;4968852;28;20134;-76
2022/06/13 13:21:36;;;;;;;3.90;1.40;;;;;;;;;;4953701;28;20477;-75
2022/06/13 13:24:23;;;;;;;3.72;1.30;;;;;;;;;;4963361;28;20528;-77
2022/06/13 13:26:57;;;;;;;5.10;1.55;;;;;;;;;;4962892;28;20054;-76
2022/06/13 13:29:51;;;;;;;7.10;1.33;;;;;;;;;;4961477;28;20051;-76
2022/06/13 13:32:52;;;;;;;6.60;1.67;;;;;;;;;;4968157;28;21163;-77
2022/06/13 13:35:38;;;;;;;5.55;1.50;;;;;;;;;;4955966;28;20058;-74
2022/06/13 13:38:35;;;;;;;4.60;1.48;;;;;;;;;;4965229;28;20059;-74
2022/06/13 13:41:30;;;;;;;4.38;1.40;;;;;;;;;;4954613;28;20047;-80
2022/06/13 13:44:13;;;;;;;4.07;1.65;;;;;;;;;;4958464;28;20049;-78
2022/06/13 13:46:51;;;;;;;4.65;1.25;;;;;;;;;;4976593;28;20255;-68
2022/06/13 13:49:39;;;;;;;6.63;1.50;;;;;;;;;;4963116;28;20047;-73
2022/06/13 13:52:16;;;;;;;5.22;1.52;;;;;;;;;;4958789;28;20038;-74
2022/06/13 13:55:01;;;;;;;4.70;1.40;;;;;;;;;;4965192;28;20046;-71
2022/06/13 13:57:41;;;;;;;4.88;1.48;;;;;;;;;;4966983;28;20214;-72
2022/06/13 14:00:23;;;;;;;5.43;1.67;;;;;;;;;;4964979;28;20049;-74
2022/06/13 14:03:14;;;;;;;3.13;1.30;;;;;;;;;;4965692;28;20134;-71
2022/06/13 14:05:52;;;;;;;8.07;2.10;;;;;;;;;;4966525;28;20062;-75
2022/06/13 14:08:30;;;;;;;5.38;1.90;;;;;;;;;;4962647;28;20070;-72
2022/06/13 14:10:58;;;;;;;12.63;4.45;;;;;;;;;;4964400;28;20047;-71
2022/06/13 14:13:31;;;;;;;9.85;4.05;;;;;;;;;;4963151;28;20038;-71
2022/06/13 14:16:05;;;;;;;6.38;2.00;;;;;;;;;;4965857;28;20109;-73
2022/06/13 14:18:38;;;;;;;4.28;1.40;;;;;;;;;;4960508;28;20105;-74
2022/06/13 14:21:33;;;;;;;4.90;1.42;;;;;;;;;;4965002;28;20051;-70
2022/06/13 14:24:08;;;;;;;4.85;1.55;;;;;;;;;;4954990;28;20047;-76
2022/06/13 14:26:36;;;;;;;5.38;1.40;;;;;;;;;;4956889;28;20051;-71
2022/06/13 14:29:25;;;;;;;5.75;1.60;;;;;;;;;;4957561;28;20043;-70
2022/06/13 14:32:07;;;;;;;6.10;1.38;;;;;;;;;;4963877;28;20546;-74
2022/06/13 14:35:11;;;;;;;15.23;3.38;;;;;;;;;;4962032;28;20077;-71
2022/06/13 14:37:46;;;;;;;11.10;2.63;;;;;;;;;;4960134;28;20074;-72
2022/06/13 14:40:20;;;;;;;3.85;1.70;;;;;;;;;;4959739;28;20050;-73
2022/06/13 14:43:09;;;;;;;6.35;1.58;;;;;;;;;;4957885;28;20138;-73
2022/06/13 14:45:35;;;;;;;6.40;1.60;;;;;;;;;;4965443;28;20347;-74
2022/06/13 14:48:58;;;;;;;4.78;1.65;;;;;;;;;;4963256;28;21312;-73
2022/06/13 14:51:28;;;;;;;4.97;1.40;;;;;;;;;;4907742;29;20052;-71
2022/06/13 14:54:03;;;;;;;8.52;1.67;;;;;;;;;;4906125;29;20055;-72
2022/06/13 14:56:30;;;;;;;7.03;1.63;;;;;;;;;;4903135;29;20055;-75
2022/06/13 14:59:15;;;;;;;5.80;1.52;;;;;;;;;;4905737;29;20044;-72
2022/06/13 15:02:06;;;;;;;4.18;1.48;;;;;;;;;;4886586;29;20143;-75
2022/06/13 15:04:32;;;;;;;3.92;2.20;;;;;;;;;;4905675;29;20099;-74
2022/06/13 15:06:59;;;;;;;8.07;1.60;;;;;;;;;;4903391;29;20709;-77
2022/06/13 15:09:46;;;;;;;5.70;1.45;;;;;;;;;;4903164;29;20100;-72
2022/06/13 15:12:26;;;;;;;6.18;1.50;;;;;;;;;;4904557;29;20088;-73
2022/06/13 15:14:59;;;;;;;6.63;1.50;;;;;;;;;;4901136;29;20265;-73
2022/06/13 15:17:27;;;;;;;5.65;1.55;;;;;;;;;;4905453;29;20044;-74
2022/06/13 15:19:57;;;;;;;8.25;1.55;;;;;;;;;;4903976;29;20084;-73
2022/06/13 15:22:31;;;;;;;6.78;1.50;;;;;;;;;;4937111;28;20460;-72
2022/06/13 15:25:00;;;;;;;6.70;1.50;;;;;;;;;;4957211;28;20460;-73
2022/06/13 15:27:27;;;;;;;4.38;1.35;;;;;;;;;;4964409;28;20152;-73
2022/06/13 15:30:05;;;;;;;5.75;1.40;;;;;;;;;;4964375;28;20499;-77
2022/06/13 15:32:37;;;;;;;3.70;1.45;;;;;;;;;;4960756;28;20062;-76
2022/06/13 15:35:16;;;;;;;3.63;1.35;;;;;;;;;;4957249;28;20531;-74
2022/06/13 15:37:45;;;;;;;3.17;1.30;;;;;;;;;;4959046;28;20724;-75
2022/06/13 15:40:32;;;;;;;5.20;1.77;;;;;;;;;;4962147;28;20051;-72
2022/06/13 15:43:00;;;;;;;5.95;1.60;;;;;;;;;;4957455;28;20487;-73
2022/06/13 15:45:33;;;;;;;7.20;1.40;;;;;;;;;;4961823;28;20046;-78
2022/06/13 15:47:59;;;;;;;6.53;1.30;;;;;;;;;;4963297;28;20062;-74
2022/06/13 15:50:27;;;;;;;6.45;1.48;;;;;;;;;;4966920;28;20050;-70
2022/06/13 15:52:56;;;;;;;5.25;1.55;;;;;;;;;;4963930;28;20488;-72
2022/06/13 15:55:41;;;;;;;8.30;1.50;;;;;;;;;;4966066;28;20069;-72